Maxwell, Iowa
Current Conditions -  °F | °C
As of 10:04 AM on Friday 24 Oct 2014 (Local Time) from KAMW Reporting Station
Haze Haze  
Wind Chill: 58°   Ceiling: 200
Heat Index: 58°   Visibility: 0.75mi
Dew Point: 57°   Wind: 12mph
Humidity: 97%   Direction: 170°S
Pressure: 29.95"   Gusts: NA
Location:  41.89°N, 93.4°W
Report Text: KAMW 241504Z AUTO 17010KT 3/4SM BR OVC002 14/14 A2995 RMK AO2 T01440139
Loading
Personal Weather Stations






























Interactive Weather Map
Tropical Storm Tracking
New forecast layout! Learn more

10-Day Weather Forecast

Advertisements
Track Severe Weather on mobile